Terminal Aerodrome Forecast
Issued by NWS

Home | Current Version | Previous Version | Text Only | Print | Product List | Glossary On
Versions: 1 2 3 4 5 6 7 8 9 10 11 12 13 14 15 16 17 18 19 20
000
FTUS42 KTAE 261125 AAA
TAFVLD
TAF AMD
KVLD 261125Z 2611/2712 00000KT 6SM BR BKN004
     FM261300 VRB04KT P6SM SCT040
     FM261800 17006KT P6SM VCTS SCT050CB
     FM270000 14004KT P6SM BKN050
     FM271100 08007KT P6SM -RA BKN015=

USA.gov is the U.S. government's official web portal to all federal, state and local government web resources and services.